sensor_id;sensor_type;location;lat;lon;timestamp;temperature;humidity
53286;DHT22;39171;45.550;12.074;2023-05-02T00:03:19;17.80;78.50
53286;DHT22;39171;45.550;12.074;2023-05-02T00:09:21;17.70;78.60
53286;DHT22;39171;45.550;12.074;2023-05-02T00:15:22;17.80;78.70
53286;DHT22;39171;45.550;12.074;2023-05-02T00:21:23;17.80;78.70
53286;DHT22;39171;45.550;12.074;2023-05-02T00:27:25;17.70;78.80
53286;DHT22;39171;45.550;12.074;2023-05-02T00:33:26;17.70;79.00
53286;DHT22;39171;45.550;12.074;2023-05-02T00:39:27;17.70;79.00
53286;DHT22;39171;45.550;12.074;2023-05-02T00:45:28;17.70;79.00
53286;DHT22;39171;45.550;12.074;2023-05-02T00:51:31;17.70;79.00
53286;DHT22;39171;45.550;12.074;2023-05-02T00:57:33;17.70;79.10
53286;DHT22;39171;45.550;12.074;2023-05-02T01:03:36;17.70;79.10
53286;DHT22;39171;45.550;12.074;2023-05-02T01:16:00;17.70;79.20
53286;DHT22;39171;45.550;12.074;2023-05-02T01:22:04;17.70;79.20
53286;DHT22;39171;45.550;12.074;2023-05-02T01:28:12;17.70;79.10
53286;DHT22;39171;45.550;12.074;2023-05-02T01:34:17;17.70;79.10
53286;DHT22;39171;45.550;12.074;2023-05-02T01:40:20;17.70;79.20
53286;DHT22;39171;45.550;12.074;2023-05-02T01:46:22;17.70;79.30
53286;DHT22;39171;45.550;12.074;2023-05-02T01:52:25;17.70;79.30
53286;DHT22;39171;45.550;12.074;2023-05-02T01:58:27;17.70;79.50
53286;DHT22;39171;45.550;12.074;2023-05-02T02:04:29;17.70;79.40
53286;DHT22;39171;45.550;12.074;2023-05-02T02:10:34;17.70;79.40
53286;DHT22;39171;45.550;12.074;2023-05-02T02:16:36;17.70;79.40
53286;DHT22;39171;45.550;12.074;2023-05-02T02:22:39;17.70;79.40
53286;DHT22;39171;45.550;12.074;2023-05-02T02:28:40;17.70;79.30
53286;DHT22;39171;45.550;12.074;2023-05-02T02:34:42;17.70;79.20
53286;DHT22;39171;45.550;12.074;2023-05-02T02:40:44;17.70;79.20
53286;DHT22;39171;45.550;12.074;2023-05-02T02:46:49;17.70;79.10
53286;DHT22;39171;45.550;12.074;2023-05-02T03:05:10;17.70;79.20
53286;DHT22;39171;45.550;12.074;2023-05-02T03:11:11;17.70;79.20
53286;DHT22;39171;45.550;12.074;2023-05-02T03:17:13;17.70;79.30
53286;DHT22;39171;45.550;12.074;2023-05-02T03:23:15;17.70;79.20
53286;DHT22;39171;45.550;12.074;2023-05-02T03:29:17;17.70;79.30
53286;DHT22;39171;45.550;12.074;2023-05-02T03:35:18;17.70;79.40
53286;DHT22;39171;45.550;12.074;2023-05-02T03:41:22;17.60;79.40
53286;DHT22;39171;45.550;12.074;2023-05-02T03:47:30;17.70;79.50
53286;DHT22;39171;45.550;12.074;2023-05-02T03:53:32;17.60;79.50
53286;DHT22;39171;45.550;12.074;2023-05-02T03:59:34;17.60;79.80
53286;DHT22;39171;45.550;12.074;2023-05-02T04:05:41;17.60;79.90
53286;DHT22;39171;45.550;12.074;2023-05-02T04:11:48;17.60;80.00
53286;DHT22;39171;45.550;12.074;2023-05-02T04:17:50;17.60;80.10
53286;DHT22;39171;45.550;12.074;2023-05-02T04:23:51;17.60;79.80
53286;DHT22;39171;45.550;12.074;2023-05-02T04:29:54;17.60;79.90
53286;DHT22;39171;45.550;12.074;2023-05-02T04:35:56;17.60;79.80
53286;DHT22;39171;45.550;12.074;2023-05-02T04:41:58;17.60;79.80
53286;DHT22;39171;45.550;12.074;2023-05-02T04:48:02;17.60;79.80
53286;DHT22;39171;45.550;12.074;2023-05-02T04:54:03;17.60;79.80
53286;DHT22;39171;45.550;12.074;2023-05-02T05:00:05;17.50;79.70
53286;DHT22;39171;45.550;12.074;2023-05-02T05:06:06;17.50;79.80
53286;DHT22;39171;45.550;12.074;2023-05-02T05:12:08;17.60;79.80
53286;DHT22;39171;45.550;12.074;2023-05-02T05:18:11;17.60;79.80
53286;DHT22;39171;45.550;12.074;2023-05-02T05:24:12;17.60;79.90
53286;DHT22;39171;45.550;12.074;2023-05-02T05:30:14;17.60;79.80
53286;DHT22;39171;45.550;12.074;2023-05-02T05:36:17;17.50;79.80
53286;DHT22;39171;45.550;12.074;2023-05-02T05:42:18;17.50;79.80
53286;DHT22;39171;45.550;12.074;2023-05-02T05:48:23;17.50;79.90
53286;DHT22;39171;45.550;12.074;2023-05-02T05:54:24;17.50;79.90
53286;DHT22;39171;45.550;12.074;2023-05-02T06:00:26;17.50;79.80
53286;DHT22;39171;45.550;12.074;2023-05-02T06:06:27;17.50;79.90
53286;DHT22;39171;45.550;12.074;2023-05-02T06:12:29;17.50;79.90
53286;DHT22;39171;45.550;12.074;2023-05-02T06:18:31;17.50;80.00
53286;DHT22;39171;45.550;12.074;2023-05-02T06:24:32;17.50;79.90
53286;DHT22;39171;45.550;12.074;2023-05-02T06:30:33;17.50;80.10
53286;DHT22;39171;45.550;12.074;2023-05-02T06:36:35;17.50;80.00
53286;DHT22;39171;45.550;12.074;2023-05-02T06:42:36;17.50;80.00
53286;DHT22;39171;45.550;12.074;2023-05-02T06:48:37;17.40;80.10
53286;DHT22;39171;45.550;12.074;2023-05-02T06:54:39;17.50;80.00
53286;DHT22;39171;45.550;12.074;2023-05-02T07:00:42;17.40;80.00
53286;DHT22;39171;45.550;12.074;2023-05-02T07:06:44;17.40;80.00
53286;DHT22;39171;45.550;12.074;2023-05-02T07:12:45;17.50;80.00
53286;DHT22;39171;45.550;12.074;2023-05-02T07:18:47;17.40;80.00
53286;DHT22;39171;45.550;12.074;2023-05-02T07:24:49;17.50;79.90
53286;DHT22;39171;45.550;12.074;2023-05-02T07:30:56;17.50;79.90
53286;DHT22;39171;45.550;12.074;2023-05-02T07:36:58;17.50;80.00
53286;DHT22;39171;45.550;12.074;2023-05-02T07:43:02;17.50;79.80
53286;DHT22;39171;45.550;12.074;2023-05-02T07:49:03;17.50;79.90
53286;DHT22;39171;45.550;12.074;2023-05-02T07:55:04;17.50;79.90
53286;DHT22;39171;45.550;12.074;2023-05-02T08:01:06;17.50;79.90
53286;DHT22;39171;45.550;12.074;2023-05-02T08:07:08;17.50;79.80
53286;DHT22;39171;45.550;12.074;2023-05-02T08:13:09;17.50;79.90
53286;DHT22;39171;45.550;12.074;2023-05-02T08:19:10;17.50;79.70
53286;DHT22;39171;45.550;12.074;2023-05-02T08:25:11;17.50;79.80
53286;DHT22;39171;45.550;12.074;2023-05-02T08:31:13;17.50;80.00
53286;DHT22;39171;45.550;12.074;2023-05-02T08:37:14;17.50;80.10
53286;DHT22;39171;45.550;12.074;2023-05-02T08:43:15;17.50;79.80
53286;DHT22;39171;45.550;12.074;2023-05-02T08:49:17;17.50;79.90
53286;DHT22;39171;45.550;12.074;2023-05-02T08:55:18;17.50;79.90
53286;DHT22;39171;45.550;12.074;2023-05-02T09:01:27;17.50;79.90
53286;DHT22;39171;45.550;12.074;2023-05-02T09:07:30;17.50;79.80
53286;DHT22;39171;45.550;12.074;2023-05-02T09:19:37;17.50;79.90
53286;DHT22;39171;45.550;12.074;2023-05-02T09:25:39;17.50;79.70
53286;DHT22;39171;45.550;12.074;2023-05-02T09:31:40;17.50;79.60
53286;DHT22;39171;45.550;12.074;2023-05-02T09:37:46;17.60;79.50
53286;DHT22;39171;45.550;12.074;2023-05-02T09:43:54;17.60;79.40
53286;DHT22;39171;45.550;12.074;2023-05-02T09:50:01;17.50;79.30
53286;DHT22;39171;45.550;12.074;2023-05-02T09:56:04;17.60;79.30
53286;DHT22;39171;45.550;12.074;2023-05-02T10:02:05;17.60;79.10
53286;DHT22;39171;45.550;12.074;2023-05-02T10:08:07;17.60;79.00
53286;DHT22;39171;45.550;12.074;2023-05-02T10:14:10;17.60;79.10
53286;DHT22;39171;45.550;12.074;2023-05-02T10:20:13;17.60;79.00
53286;DHT22;39171;45.550;12.074;2023-05-02T10:26:16;17.60;79.20
53286;DHT22;39171;45.550;12.074;2023-05-02T10:32:19;17.60;79.10
53286;DHT22;39171;45.550;12.074;2023-05-02T10:38:22;17.60;79.10
53286;DHT22;39171;45.550;12.074;2023-05-02T10:44:34;17.60;79.10
53286;DHT22;39171;45.550;12.074;2023-05-02T10:50:44;17.60;79.00
53286;DHT22;39171;45.550;12.074;2023-05-02T10:57:00;17.70;79.00
53286;DHT22;39171;45.550;12.074;2023-05-02T11:03:03;17.60;78.90
53286;DHT22;39171;45.550;12.074;2023-05-02T11:21:32;17.60;79.10
53286;DHT22;39171;45.550;12.074;2023-05-02T11:33:43;17.60;79.20
53286;DHT22;39171;45.550;12.074;2023-05-02T11:40:08;17.60;79.00
53286;DHT22;39171;45.550;12.074;2023-05-02T11:46:10;17.60;79.10
53286;DHT22;39171;45.550;12.074;2023-05-02T11:52:12;17.60;78.90
53286;DHT22;39171;45.550;12.074;2023-05-02T11:58:14;17.60;78.90
53286;DHT22;39171;45.550;12.074;2023-05-02T12:04:15;17.60;78.90
53286;DHT22;39171;45.550;12.074;2023-05-02T12:10:21;17.60;78.80
53286;DHT22;39171;45.550;12.074;2023-05-02T12:16:22;17.70;78.90
53286;DHT22;39171;45.550;12.074;2023-05-02T12:22:24;17.60;78.80
53286;DHT22;39171;45.550;12.074;2023-05-02T12:28:26;17.70;78.60
53286;DHT22;39171;45.550;12.074;2023-05-02T12:34:33;17.60;78.70
53286;DHT22;39171;45.550;12.074;2023-05-02T12:40:35;17.70;78.80
53286;DHT22;39171;45.550;12.074;2023-05-02T12:46:37;17.70;78.40
53286;DHT22;39171;45.550;12.074;2023-05-02T12:52:48;17.70;78.50
53286;DHT22;39171;45.550;12.074;2023-05-02T12:58:50;17.70;78.50
53286;DHT22;39171;45.550;12.074;2023-05-02T13:04:51;17.70;78.40
53286;DHT22;39171;45.550;12.074;2023-05-02T13:10:53;17.70;78.60
53286;DHT22;39171;45.550;12.074;2023-05-02T13:16:54;17.70;78.70
53286;DHT22;39171;45.550;12.074;2023-05-02T13:22:55;17.70;78.60
53286;DHT22;39171;45.550;12.074;2023-05-02T13:28:56;17.70;78.80
53286;DHT22;39171;45.550;12.074;2023-05-02T13:34:58;17.70;78.80
53286;DHT22;39171;45.550;12.074;2023-05-02T13:40:59;17.70;78.70
53286;DHT22;39171;45.550;12.074;2023-05-02T13:47:00;17.70;79.00
53286;DHT22;39171;45.550;12.074;2023-05-02T13:53:01;17.60;78.80
53286;DHT22;39171;45.550;12.074;2023-05-02T13:59:03;17.60;78.60
53286;DHT22;39171;45.550;12.074;2023-05-02T14:05:04;17.70;78.80
53286;DHT22;39171;45.550;12.074;2023-05-02T14:11:06;17.70;78.60
53286;DHT22;39171;45.550;12.074;2023-05-02T14:17:07;17.70;78.90
53286;DHT22;39171;45.550;12.074;2023-05-02T14:23:08;17.70;79.10
53286;DHT22;39171;45.550;12.074;2023-05-02T14:29:09;17.60;78.80
53286;DHT22;39171;45.550;12.074;2023-05-02T14:35:11;17.60;78.80
53286;DHT22;39171;45.550;12.074;2023-05-02T14:41:12;17.70;78.80
53286;DHT22;39171;45.550;12.074;2023-05-02T14:47:13;17.60;78.70
53286;DHT22;39171;45.550;12.074;2023-05-02T14:53:14;17.60;78.70
53286;DHT22;39171;45.550;12.074;2023-05-02T14:59:16;17.60;78.70
53286;DHT22;39171;45.550;12.074;2023-05-02T15:05:17;17.60;78.80
53286;DHT22;39171;45.550;12.074;2023-05-02T15:11:18;17.70;79.00
53286;DHT22;39171;45.550;12.074;2023-05-02T15:17:20;17.70;78.80
53286;DHT22;39171;45.550;12.074;2023-05-02T15:23:21;17.70;78.60
53286;DHT22;39171;45.550;12.074;2023-05-02T15:29:22;17.70;78.60
53286;DHT22;39171;45.550;12.074;2023-05-02T15:35:23;17.70;78.60
53286;DHT22;39171;45.550;12.074;2023-05-02T15:41:25;17.70;78.50
53286;DHT22;39171;45.550;12.074;2023-05-02T15:47:27;17.70;78.40
53286;DHT22;39171;45.550;12.074;2023-05-02T15:53:28;17.70;78.30
53286;DHT22;39171;45.550;12.074;2023-05-02T15:59:30;17.70;78.50
53286;DHT22;39171;45.550;12.074;2023-05-02T16:05:31;17.70;78.40
53286;DHT22;39171;45.550;12.074;2023-05-02T16:11:33;17.70;78.40
53286;DHT22;39171;45.550;12.074;2023-05-02T16:17:34;17.70;78.30
53286;DHT22;39171;45.550;12.074;2023-05-02T16:23:36;17.70;78.30
53286;DHT22;39171;45.550;12.074;2023-05-02T16:29:37;17.70;78.30
53286;DHT22;39171;45.550;12.074;2023-05-02T16:35:38;17.70;78.20
53286;DHT22;39171;45.550;12.074;2023-05-02T16:41:40;17.70;78.30
53286;DHT22;39171;45.550;12.074;2023-05-02T16:47:41;17.70;78.20
53286;DHT22;39171;45.550;12.074;2023-05-02T16:53:43;17.70;78.30
53286;DHT22;39171;45.550;12.074;2023-05-02T16:59:46;17.70;78.30
53286;DHT22;39171;45.550;12.074;2023-05-02T17:05:47;17.70;78.40
53286;DHT22;39171;45.550;12.074;2023-05-02T17:11:48;17.70;78.30
53286;DHT22;39171;45.550;12.074;2023-05-02T17:17:50;17.70;78.40
53286;DHT22;39171;45.550;12.074;2023-05-02T17:23:52;17.70;78.50
53286;DHT22;39171;45.550;12.074;2023-05-02T17:29:53;17.70;78.70
53286;DHT22;39171;45.550;12.074;2023-05-02T17:35:55;17.70;78.50
53286;DHT22;39171;45.550;12.074;2023-05-02T17:41:56;17.70;78.70
53286;DHT22;39171;45.550;12.074;2023-05-02T17:47:57;17.60;78.80
53286;DHT22;39171;45.550;12.074;2023-05-02T17:53:58;17.60;78.70
53286;DHT22;39171;45.550;12.074;2023-05-02T18:00:00;17.60;78.90
53286;DHT22;39171;45.550;12.074;2023-05-02T18:06:06;17.60;78.90
53286;DHT22;39171;45.550;12.074;2023-05-02T18:12:07;17.60;78.90
53286;DHT22;39171;45.550;12.074;2023-05-02T18:18:09;17.60;78.80
53286;DHT22;39171;45.550;12.074;2023-05-02T18:24:10;17.60;79.00
53286;DHT22;39171;45.550;12.074;2023-05-02T18:30:12;17.60;79.00
53286;DHT22;39171;45.550;12.074;2023-05-02T18:36:13;17.60;79.10
53286;DHT22;39171;45.550;12.074;2023-05-02T18:42:18;17.60;79.00
53286;DHT22;39171;45.550;12.074;2023-05-02T18:48:20;17.60;79.10
53286;DHT22;39171;45.550;12.074;2023-05-02T18:54:22;17.60;79.00
53286;DHT22;39171;45.550;12.074;2023-05-02T19:00:24;17.60;79.10
53286;DHT22;39171;45.550;12.074;2023-05-02T19:06:26;17.60;79.10
53286;DHT22;39171;45.550;12.074;2023-05-02T19:12:28;17.50;79.10
53286;DHT22;39171;45.550;12.074;2023-05-02T19:18:29;17.50;79.10
53286;DHT22;39171;45.550;12.074;2023-05-02T19:24:31;17.60;79.10
53286;DHT22;39171;45.550;12.074;2023-05-02T19:30:33;17.50;79.10
53286;DHT22;39171;45.550;12.074;2023-05-02T19:36:34;17.50;79.10
53286;DHT22;39171;45.550;12.074;2023-05-02T19:42:36;17.50;79.10
53286;DHT22;39171;45.550;12.074;2023-05-02T19:48:37;17.50;79.10
53286;DHT22;39171;45.550;12.074;2023-05-02T19:54:38;17.50;79.10
53286;DHT22;39171;45.550;12.074;2023-05-02T20:00:40;17.50;79.10
53286;DHT22;39171;45.550;12.074;2023-05-02T20:06:41;17.50;79.10
53286;DHT22;39171;45.550;12.074;2023-05-02T20:12:43;17.50;79.20
53286;DHT22;39171;45.550;12.074;2023-05-02T20:18:50;17.50;79.10
53286;DHT22;39171;45.550;12.074;2023-05-02T20:24:52;17.50;79.20
53286;DHT22;39171;45.550;12.074;2023-05-02T20:30:53;17.50;79.30
53286;DHT22;39171;45.550;12.074;2023-05-02T20:36:55;17.50;79.20
53286;DHT22;39171;45.550;12.074;2023-05-02T20:42:56;17.50;79.30
53286;DHT22;39171;45.550;12.074;2023-05-02T20:49:01;17.50;79.30
53286;DHT22;39171;45.550;12.074;2023-05-02T20:55:02;17.50;79.30
53286;DHT22;39171;45.550;12.074;2023-05-02T21:01:03;17.50;79.30
53286;DHT22;39171;45.550;12.074;2023-05-02T21:07:05;17.50;79.30
53286;DHT22;39171;45.550;12.074;2023-05-02T21:13:06;17.50;79.30
53286;DHT22;39171;45.550;12.074;2023-05-02T21:19:08;17.50;79.20
53286;DHT22;39171;45.550;12.074;2023-05-02T21:25:09;17.50;79.40
53286;DHT22;39171;45.550;12.074;2023-05-02T21:31:10;17.50;79.30
53286;DHT22;39171;45.550;12.074;2023-05-02T21:37:11;17.50;79.40
53286;DHT22;39171;45.550;12.074;2023-05-02T21:43:13;17.50;79.40
53286;DHT22;39171;45.550;12.074;2023-05-02T21:49:15;17.40;79.40
53286;DHT22;39171;45.550;12.074;2023-05-02T21:55:16;17.40;79.40
53286;DHT22;39171;45.550;12.074;2023-05-02T22:01:18;17.40;79.40
53286;DHT22;39171;45.550;12.074;2023-05-02T22:07:19;17.40;79.40
53286;DHT22;39171;45.550;12.074;2023-05-02T22:13:20;17.40;79.50
53286;DHT22;39171;45.550;12.074;2023-05-02T22:19:23;17.40;79.50
53286;DHT22;39171;45.550;12.074;2023-05-02T22:25:25;17.40;79.50
53286;DHT22;39171;45.550;12.074;2023-05-02T22:31:27;17.40;79.60
53286;DHT22;39171;45.550;12.074;2023-05-02T22:37:28;17.40;79.60
53286;DHT22;39171;45.550;12.074;2023-05-02T22:43:30;17.40;79.60
53286;DHT22;39171;45.550;12.074;2023-05-02T22:49:31;17.40;79.60
53286;DHT22;39171;45.550;12.074;2023-05-02T22:55:33;17.40;79.80
53286;DHT22;39171;45.550;12.074;2023-05-02T23:01:51;17.40;79.80
53286;DHT22;39171;45.550;12.074;2023-05-02T23:07:52;17.40;79.90
53286;DHT22;39171;45.550;12.074;2023-05-02T23:13:54;17.40;79.80
53286;DHT22;39171;45.550;12.074;2023-05-02T23:19:55;17.40;79.80
53286;DHT22;39171;45.550;12.074;2023-05-02T23:25:56;17.40;79.90
53286;DHT22;39171;45.550;12.074;2023-05-02T23:31:58;17.40;79.80
53286;DHT22;39171;45.550;12.074;2023-05-02T23:37:59;17.40;80.00
53286;DHT22;39171;45.550;12.074;2023-05-02T23:44:00;17.40;79.90
53286;DHT22;39171;45.550;12.074;2023-05-02T23:50:02;17.40;79.80
53286;DHT22;39171;45.550;12.074;2023-05-02T23:56:04;17.40;79.80
